BARN66 YAMB-YWLM
Flight info
| Callsign | BARN66 |
|---|---|
| Flight time | 1h 24m |
| Altitude | 40000 |
| Route | AMB DCT COWIE DCT 274036S1532011E 274747S1532530E 280757S1534459E DCT SEMAJ DCT AM116/N0451F410 DCT WM300/N0451F400 DCT WM303 DCT WM306 DCT WM313 DCT NELSN |
| Aircraft | F35/M-SDE3RV/LB1 |
Departure
| Time | 2026-04-22 08:34 |
|---|---|
| Airport | RAAF Base Amberley (YAMB) |
Arrival
| Time | 2026-04-22 09:58 |
|---|---|
| Airport | Newcastle Airport (YWLM) |
| Time | Latitude | Longitude | Altitude | Speed | Heading |
|---|---|---|---|---|---|
| 2026-04-22 08:02 | -27.62987 | 152.70437 | 100 ft | 0 kts | 9° |
| 2026-04-22 08:30 | -27.62970 | 152.70441 | 100 ft | 10 kts | 11° |
| 2026-04-22 08:31 | -27.62952 | 152.70454 | 99 ft | 6 kts | 59° |
| 2026-04-22 08:31 | -27.62927 | 152.70529 | 98 ft | 8 kts | 76° |
| 2026-04-22 08:31 | -27.62960 | 152.70628 | 99 ft | 10 kts | 59° |
| 2026-04-22 08:32 | -27.62900 | 152.70630 | 99 ft | 9 kts | 339° |
| 2026-04-22 08:32 | -27.62833 | 152.70599 | 98 ft | 12 kts | 339° |
| 2026-04-22 08:32 | -27.62744 | 152.70559 | 98 ft | 15 kts | 336° |
| 2026-04-22 08:32 | -27.62639 | 152.70514 | 98 ft | 18 kts | 341° |
| 2026-04-22 08:33 | -27.62509 | 152.70457 | 95 ft | 22 kts | 336° |
| 2026-04-22 08:33 | -27.62361 | 152.70391 | 97 ft | 20 kts | 339° |
| 2026-04-22 08:33 | -27.62243 | 152.70380 | 98 ft | 12 kts | 33° |
| 2026-04-22 08:33 | -27.62217 | 152.70418 | 98 ft | 9 kts | 68° |
| 2026-04-22 08:34 | -27.62227 | 152.70542 | 100 ft | 22 kts | 158° |
| 2026-04-22 08:34 | -27.62985 | 152.70881 | 122 ft | 214 kts | 157° |
| 2026-04-22 08:34 | -27.64620 | 152.71646 | 1726 ft | 309 kts | 156° |
| 2026-04-22 08:34 | -27.66996 | 152.72820 | 4790 ft | 431 kts | 156° |
| 2026-04-22 08:35 | -27.70024 | 152.74378 | 8785 ft | 515 kts | 155° |
| 2026-04-22 08:35 | -27.73345 | 152.76141 | 13298 ft | 546 kts | 155° |
| 2026-04-22 08:35 | -27.76864 | 152.78064 | 17952 ft | 571 kts | 156° |
| 2026-04-22 08:35 | -27.80423 | 152.80073 | 22227 ft | 569 kts | 154° |
| 2026-04-22 08:36 | -27.83605 | 152.82701 | 26419 ft | 565 kts | 138° |
| 2026-04-22 08:36 | -27.85976 | 152.86236 | 30814 ft | 569 kts | 122° |
| 2026-04-22 08:36 | -27.87409 | 152.90419 | 34859 ft | 578 kts | 105° |
| 2026-04-22 08:36 | -27.88121 | 152.95095 | 36764 ft | 626 kts | 96° |
| 2026-04-22 08:37 | -27.88096 | 153.00046 | 36241 ft | 642 kts | 80° |
| 2026-04-22 08:37 | -27.87172 | 153.05011 | 35927 ft | 636 kts | 75° |
| 2026-04-22 08:37 | -27.85986 | 153.09807 | 36602 ft | 635 kts | 74° |
| 2026-04-22 08:37 | -27.84735 | 153.14555 | 37308 ft | 632 kts | 73° |
| 2026-04-22 08:38 | -27.83509 | 153.19083 | 38254 ft | 576 kts | 73° |
| 2026-04-22 08:38 | -27.82285 | 153.23555 | 39134 ft | 600 kts | 73° |
| 2026-04-22 08:38 | -27.81042 | 153.28076 | 39653 ft | 606 kts | 73° |
| 2026-04-22 08:38 | -27.79815 | 153.32661 | 39883 ft | 610 kts | 78° |
| 2026-04-22 08:39 | -27.79290 | 153.37389 | 40019 ft | 606 kts | 92° |
| 2026-04-22 08:39 | -27.79898 | 153.46833 | 40053 ft | 603 kts | 102° |
| 2026-04-22 08:40 | -27.81891 | 153.55966 | 40055 ft | 597 kts | 108° |
| 2026-04-22 08:40 | -27.83734 | 153.65126 | 40046 ft | 598 kts | 108° |
| 2026-04-22 08:41 | -27.85303 | 153.72803 | 40033 ft | 598 kts | 107° |
| 2026-04-22 08:41 | -27.87195 | 153.81956 | 40034 ft | 598 kts | 107° |
| 2026-04-22 08:42 | -27.89062 | 153.91091 | 40029 ft | 598 kts | 107° |
| 2026-04-22 08:42 | -27.90922 | 154.00265 | 40027 ft | 598 kts | 107° |
| 2026-04-22 08:43 | -27.92779 | 154.09432 | 40025 ft | 597 kts | 107° |
| 2026-04-22 08:43 | -27.94627 | 154.18583 | 40022 ft | 597 kts | 107° |
| 2026-04-22 08:44 | -27.96470 | 154.27740 | 40026 ft | 597 kts | 107° |
| 2026-04-22 08:44 | -27.98305 | 154.36898 | 40023 ft | 597 kts | 107° |
| 2026-04-22 08:45 | -28.00132 | 154.46047 | 40020 ft | 596 kts | 107° |
| 2026-04-22 08:45 | -28.01955 | 154.55211 | 40020 ft | 596 kts | 106° |
| 2026-04-22 08:46 | -28.03769 | 154.64361 | 40017 ft | 596 kts | 106° |
| 2026-04-22 08:46 | -28.05576 | 154.73506 | 40017 ft | 596 kts | 106° |
| 2026-04-22 08:47 | -28.07380 | 154.82675 | 40012 ft | 596 kts | 106° |
| 2026-04-22 08:47 | -28.09187 | 154.91894 | 40012 ft | 596 kts | 106° |
| 2026-04-22 08:48 | -28.10969 | 155.01022 | 40010 ft | 596 kts | 106° |
| 2026-04-22 08:48 | -28.12819 | 155.10172 | 40006 ft | 593 kts | 113° |
| 2026-04-22 08:48 | -28.14494 | 155.14339 | 40048 ft | 578 kts | 130° |
| 2026-04-22 08:49 | -28.17045 | 155.17769 | 40089 ft | 562 kts | 147° |
| 2026-04-22 08:49 | -28.20229 | 155.20172 | 40115 ft | 544 kts | 163° |
| 2026-04-22 08:49 | -28.23787 | 155.21385 | 40138 ft | 524 kts | 181° |
| 2026-04-22 08:49 | -28.27343 | 155.21310 | 40152 ft | 505 kts | 198° |
| 2026-04-22 08:50 | -28.30581 | 155.19991 | 40167 ft | 490 kts | 216° |
| 2026-04-22 08:50 | -28.33182 | 155.17572 | 40178 ft | 481 kts | 234° |
| 2026-04-22 08:50 | -28.34884 | 155.14345 | 40179 ft | 480 kts | 248° |
| 2026-04-22 08:51 | -28.37086 | 155.07192 | 40077 ft | 479 kts | 252° |
| 2026-04-22 08:51 | -28.39034 | 154.99967 | 40036 ft | 478 kts | 252° |
| 2026-04-22 08:52 | -28.40977 | 154.92744 | 40021 ft | 479 kts | 252° |
| 2026-04-22 08:52 | -28.43033 | 154.85492 | 40021 ft | 479 kts | 251° |
| 2026-04-22 08:53 | -28.45122 | 154.78574 | 40015 ft | 478 kts | 250° |
| 2026-04-22 08:53 | -28.47408 | 154.71473 | 40017 ft | 479 kts | 249° |
| 2026-04-22 08:54 | -28.49850 | 154.64429 | 40021 ft | 478 kts | 243° |
| 2026-04-22 08:54 | -28.52982 | 154.57761 | 40036 ft | 480 kts | 245° |
| 2026-04-22 08:55 | -28.55765 | 154.50876 | 40033 ft | 479 kts | 245° |
| 2026-04-22 08:55 | -28.58590 | 154.44020 | 40029 ft | 478 kts | 244° |
| 2026-04-22 08:56 | -28.61550 | 154.37236 | 39999 ft | 478 kts | 243° |
| 2026-04-22 08:56 | -28.64666 | 154.30540 | 40007 ft | 480 kts | 242° |
| 2026-04-22 08:56 | -28.66280 | 154.27241 | 40015 ft | 468 kts | 241° |
| 2026-04-22 08:57 | -28.67934 | 154.23969 | 40023 ft | 482 kts | 240° |
| 2026-04-22 08:57 | -28.71459 | 154.17340 | 39944 ft | 495 kts | 238° |
| 2026-04-22 08:58 | -28.75229 | 154.10732 | 39881 ft | 499 kts | 237° |
| 2026-04-22 08:58 | -28.79206 | 154.04258 | 39933 ft | 499 kts | 235° |
| 2026-04-22 08:59 | -28.83404 | 153.97931 | 39984 ft | 500 kts | 233° |
| 2026-04-22 08:59 | -28.87818 | 153.91793 | 40021 ft | 501 kts | 231° |
| 2026-04-22 09:00 | -28.92526 | 153.85951 | 40093 ft | 500 kts | 219° |
| 2026-04-22 09:00 | -28.98675 | 153.81998 | 40107 ft | 515 kts | 206° |
| 2026-04-22 09:01 | -29.05418 | 153.79158 | 40069 ft | 518 kts | 199° |
| 2026-04-22 09:01 | -29.12506 | 153.77349 | 40084 ft | 521 kts | 200° |
| 2026-04-22 09:02 | -29.19551 | 153.75384 | 40063 ft | 523 kts | 198° |
| 2026-04-22 09:02 | -29.26614 | 153.73411 | 40059 ft | 522 kts | 198° |
| 2026-04-22 09:03 | -29.33682 | 153.71469 | 40059 ft | 522 kts | 198° |
| 2026-04-22 09:03 | -29.40761 | 153.69541 | 40059 ft | 521 kts | 199° |
| 2026-04-22 09:04 | -29.47812 | 153.67601 | 40063 ft | 522 kts | 199° |
| 2026-04-22 09:04 | -29.51283 | 153.66640 | 40177 ft | 508 kts | 199° |
| 2026-04-22 09:04 | -29.54713 | 153.65690 | 40231 ft | 505 kts | 198° |
| 2026-04-22 09:05 | -29.61534 | 153.63808 | 40198 ft | 503 kts | 199° |
| 2026-04-22 09:05 | -29.68361 | 153.62069 | 40160 ft | 506 kts | 193° |
| 2026-04-22 09:06 | -29.75276 | 153.60691 | 40109 ft | 504 kts | 195° |
| 2026-04-22 09:06 | -29.82202 | 153.59316 | 40087 ft | 504 kts | 196° |
| 2026-04-22 09:07 | -29.89104 | 153.57911 | 40076 ft | 505 kts | 195° |
| 2026-04-22 09:07 | -29.96029 | 153.56490 | 40068 ft | 505 kts | 195° |
| 2026-04-22 09:08 | -30.02927 | 153.55083 | 40064 ft | 505 kts | 195° |
| 2026-04-22 09:08 | -30.09852 | 153.53669 | 40065 ft | 505 kts | 195° |
| 2026-04-22 09:09 | -30.16821 | 153.52241 | 40064 ft | 505 kts | 195° |
| 2026-04-22 09:09 | -30.23708 | 153.50829 | 40068 ft | 505 kts | 195° |
| 2026-04-22 09:10 | -30.30632 | 153.49407 | 40072 ft | 505 kts | 195° |
| 2026-04-22 09:10 | -30.37597 | 153.47976 | 40075 ft | 504 kts | 195° |
| 2026-04-22 09:11 | -30.44463 | 153.46562 | 40078 ft | 504 kts | 195° |
| 2026-04-22 09:11 | -30.51365 | 153.45138 | 40078 ft | 503 kts | 195° |
| 2026-04-22 09:12 | -30.58252 | 153.43716 | 40080 ft | 503 kts | 195° |
| 2026-04-22 09:12 | -30.65216 | 153.42276 | 40079 ft | 503 kts | 195° |
| 2026-04-22 09:13 | -30.72068 | 153.40625 | 40091 ft | 499 kts | 200° |
| 2026-04-22 09:13 | -30.78573 | 153.37994 | 40097 ft | 493 kts | 209° |
| 2026-04-22 09:14 | -30.83893 | 153.35426 | 40098 ft | 495 kts | 205° |
| 2026-04-22 09:14 | -30.90254 | 153.32382 | 40096 ft | 494 kts | 206° |
| 2026-04-22 09:15 | -30.96630 | 153.29375 | 40093 ft | 494 kts | 206° |
| 2026-04-22 09:15 | -31.03006 | 153.26359 | 40092 ft | 495 kts | 206° |
| 2026-04-22 09:15 | -31.06156 | 153.24860 | 40093 ft | 458 kts | 206° |
| 2026-04-22 09:16 | -31.09018 | 153.23790 | 40103 ft | 412 kts | 192° |
| 2026-04-22 09:16 | -31.11718 | 153.24018 | 40140 ft | 392 kts | 169° |
| 2026-04-22 09:16 | -31.14235 | 153.25602 | 40171 ft | 429 kts | 146° |
| 2026-04-22 09:16 | -31.16221 | 153.28353 | 40200 ft | 459 kts | 124° |
| 2026-04-22 09:17 | -31.17334 | 153.31897 | 40217 ft | 473 kts | 103° |
| 2026-04-22 09:17 | -31.17529 | 153.35764 | 40194 ft | 482 kts | 92° |
| 2026-04-22 09:17 | -31.17381 | 153.39661 | 40153 ft | 483 kts | 89° |
| 2026-04-22 09:18 | -31.16829 | 153.47445 | 40111 ft | 480 kts | 88° |
| 2026-04-22 09:18 | -31.16177 | 153.55249 | 40092 ft | 481 kts | 87° |
| 2026-04-22 09:19 | -31.15495 | 153.63023 | 40082 ft | 483 kts | 87° |
| 2026-04-22 09:19 | -31.14799 | 153.70801 | 40075 ft | 480 kts | 87° |
| 2026-04-22 09:20 | -31.14095 | 153.78572 | 40071 ft | 484 kts | 87° |
| 2026-04-22 09:20 | -31.13387 | 153.86351 | 40067 ft | 480 kts | 88° |
| 2026-04-22 09:21 | -31.12676 | 153.94142 | 40071 ft | 483 kts | 87° |
| 2026-04-22 09:21 | -31.11963 | 154.01895 | 40064 ft | 481 kts | 88° |
| 2026-04-22 09:22 | -31.11247 | 154.09701 | 40064 ft | 482 kts | 87° |
| 2026-04-22 09:22 | -31.10534 | 154.17451 | 40059 ft | 482 kts | 88° |
| 2026-04-22 09:23 | -31.09818 | 154.25230 | 40062 ft | 481 kts | 87° |
| 2026-04-22 09:23 | -31.09100 | 154.33003 | 40060 ft | 483 kts | 88° |
| 2026-04-22 09:23 | -31.09190 | 154.36824 | 40089 ft | 463 kts | 109° |
| 2026-04-22 09:24 | -31.10283 | 154.40218 | 40128 ft | 448 kts | 130° |
| 2026-04-22 09:24 | -31.12298 | 154.42923 | 40160 ft | 454 kts | 151° |
| 2026-04-22 09:24 | -31.15266 | 154.44732 | 40212 ft | 508 kts | 171° |
| 2026-04-22 09:24 | -31.18740 | 154.45326 | 40245 ft | 502 kts | 188° |
| 2026-04-22 09:25 | -31.22120 | 154.44577 | 40260 ft | 491 kts | 206° |
| 2026-04-22 09:25 | -31.25027 | 154.42579 | 40267 ft | 486 kts | 224° |
| 2026-04-22 09:25 | -31.27185 | 154.39502 | 40273 ft | 486 kts | 243° |
| 2026-04-22 09:25 | -31.28336 | 154.35792 | 40246 ft | 492 kts | 255° |
| 2026-04-22 09:26 | -31.28991 | 154.31899 | 40176 ft | 492 kts | 258° |
| 2026-04-22 09:26 | -31.30010 | 154.23965 | 40111 ft | 490 kts | 259° |
| 2026-04-22 09:27 | -31.30933 | 154.16070 | 40085 ft | 491 kts | 259° |
| 2026-04-22 09:27 | -31.31841 | 154.08175 | 40074 ft | 490 kts | 259° |
| 2026-04-22 09:28 | -31.32750 | 154.00270 | 40069 ft | 490 kts | 259° |
| 2026-04-22 09:28 | -31.33658 | 153.92369 | 40068 ft | 489 kts | 259° |
| 2026-04-22 09:29 | -31.34571 | 153.84437 | 40070 ft | 490 kts | 259° |
| 2026-04-22 09:29 | -31.35475 | 153.76588 | 40070 ft | 490 kts | 259° |
| 2026-04-22 09:30 | -31.36385 | 153.68693 | 40073 ft | 490 kts | 259° |
| 2026-04-22 09:30 | -31.37300 | 153.60743 | 40077 ft | 490 kts | 259° |
| 2026-04-22 09:31 | -31.38211 | 153.52834 | 40081 ft | 490 kts | 259° |
| 2026-04-22 09:31 | -31.39114 | 153.44997 | 40083 ft | 490 kts | 259° |
| 2026-04-22 09:32 | -31.40989 | 153.37478 | 40150 ft | 484 kts | 237° |
| 2026-04-22 09:32 | -31.44897 | 153.30996 | 39758 ft | 486 kts | 233° |
| 2026-04-22 09:32 | -31.46858 | 153.27976 | 39081 ft | 446 kts | 233° |
| 2026-04-22 09:33 | -31.48675 | 153.25213 | 38276 ft | 412 kts | 232° |
| 2026-04-22 09:33 | -31.50375 | 153.22640 | 37459 ft | 394 kts | 232° |
| 2026-04-22 09:33 | -31.52067 | 153.20081 | 36680 ft | 400 kts | 232° |
| 2026-04-22 09:33 | -31.53771 | 153.17503 | 35936 ft | 401 kts | 232° |
| 2026-04-22 09:34 | -31.55482 | 153.14914 | 35212 ft | 401 kts | 231° |
| 2026-04-22 09:34 | -31.57195 | 153.12319 | 34517 ft | 404 kts | 231° |
| 2026-04-22 09:34 | -31.58940 | 153.09676 | 33737 ft | 405 kts | 231° |
| 2026-04-22 09:35 | -31.62385 | 153.04452 | 32224 ft | 414 kts | 231° |
| 2026-04-22 09:35 | -31.64175 | 153.01736 | 31479 ft | 416 kts | 230° |
| 2026-04-22 09:35 | -31.66138 | 152.99236 | 30772 ft | 418 kts | 220° |
| 2026-04-22 09:35 | -31.68473 | 152.97102 | 30015 ft | 422 kts | 214° |
| 2026-04-22 09:36 | -31.70944 | 152.95243 | 29207 ft | 425 kts | 211° |
| 2026-04-22 09:36 | -31.73536 | 152.93523 | 28410 ft | 429 kts | 208° |
| 2026-04-22 09:36 | -31.76174 | 152.91867 | 27644 ft | 431 kts | 207° |
| 2026-04-22 09:36 | -31.78852 | 152.90220 | 26893 ft | 437 kts | 207° |
| 2026-04-22 09:37 | -31.81548 | 152.88635 | 26168 ft | 438 kts | 203° |
| 2026-04-22 09:37 | -31.84442 | 152.87316 | 25452 ft | 443 kts | 200° |
| 2026-04-22 09:37 | -31.87218 | 152.86002 | 24774 ft | 445 kts | 202° |
| 2026-04-22 09:37 | -31.90083 | 152.84560 | 24094 ft | 450 kts | 201° |
| 2026-04-22 09:38 | -31.92958 | 152.83200 | 23327 ft | 453 kts | 200° |
| 2026-04-22 09:38 | -31.95886 | 152.81778 | 22532 ft | 459 kts | 201° |
| 2026-04-22 09:38 | -31.98890 | 152.80306 | 21740 ft | 462 kts | 200° |
| 2026-04-22 09:38 | -32.01875 | 152.78868 | 20981 ft | 467 kts | 200° |
| 2026-04-22 09:39 | -32.04905 | 152.77392 | 20240 ft | 472 kts | 200° |
| 2026-04-22 09:39 | -32.07908 | 152.75928 | 19529 ft | 476 kts | 200° |
| 2026-04-22 09:39 | -32.11019 | 152.74417 | 18815 ft | 481 kts | 200° |
| 2026-04-22 09:39 | -32.14122 | 152.72905 | 18043 ft | 483 kts | 200° |
| 2026-04-22 09:40 | -32.17238 | 152.71385 | 17256 ft | 485 kts | 200° |
| 2026-04-22 09:40 | -32.20374 | 152.69856 | 16486 ft | 487 kts | 200° |
| 2026-04-22 09:40 | -32.23477 | 152.68341 | 15749 ft | 490 kts | 200° |
| 2026-04-22 09:40 | -32.26703 | 152.66764 | 15006 ft | 491 kts | 200° |
| 2026-04-22 09:41 | -32.29826 | 152.65238 | 14300 ft | 493 kts | 200° |
| 2026-04-22 09:41 | -32.33048 | 152.63661 | 13521 ft | 494 kts | 200° |
| 2026-04-22 09:41 | -32.36233 | 152.62101 | 13014 ft | 496 kts | 200° |
| 2026-04-22 09:41 | -32.39416 | 152.60541 | 12797 ft | 496 kts | 200° |
| 2026-04-22 09:42 | -32.42608 | 152.58975 | 12704 ft | 496 kts | 200° |
| 2026-04-22 09:42 | -32.45809 | 152.57405 | 12664 ft | 497 kts | 200° |
| 2026-04-22 09:42 | -32.49050 | 152.55812 | 12335 ft | 486 kts | 201° |
| 2026-04-22 09:42 | -32.52003 | 152.54355 | 11573 ft | 427 kts | 200° |
| 2026-04-22 09:43 | -32.54636 | 152.53064 | 10820 ft | 391 kts | 200° |
| 2026-04-22 09:43 | -32.57050 | 152.51879 | 10077 ft | 364 kts | 201° |
| 2026-04-22 09:43 | -32.59310 | 152.50762 | 9435 ft | 337 kts | 200° |
| 2026-04-22 09:43 | -32.60722 | 152.50065 | 9214 ft | 315 kts | 200° |
| 2026-04-22 09:44 | -32.62630 | 152.49125 | 9054 ft | 279 kts | 200° |
| 2026-04-22 09:44 | -32.64969 | 152.47975 | 8973 ft | 273 kts | 200° |
| 2026-04-22 09:44 | -32.66152 | 152.47394 | 8962 ft | 272 kts | 200° |
| 2026-04-22 09:44 | -32.67901 | 152.46529 | 8960 ft | 271 kts | 200° |
| 2026-04-22 09:45 | -32.69627 | 152.45674 | 8961 ft | 271 kts | 200° |
| 2026-04-22 09:45 | -32.71394 | 152.44803 | 8965 ft | 271 kts | 200° |
| 2026-04-22 09:45 | -32.73143 | 152.43939 | 8969 ft | 271 kts | 200° |
| 2026-04-22 09:45 | -32.74866 | 152.43087 | 8975 ft | 272 kts | 200° |
| 2026-04-22 09:46 | -32.76601 | 152.42216 | 8982 ft | 273 kts | 203° |
| 2026-04-22 09:46 | -32.77559 | 152.40409 | 8475 ft | 293 kts | 268° |
| 2026-04-22 09:46 | -32.76870 | 152.38176 | 7993 ft | 297 kts | 309° |
| 2026-04-22 09:46 | -32.75104 | 152.37060 | 7510 ft | 296 kts | 356° |
| 2026-04-22 09:47 | -32.73163 | 152.37589 | 7193 ft | 288 kts | 38° |
| 2026-04-22 09:47 | -32.71997 | 152.39392 | 6903 ft | 276 kts | 78° |
| 2026-04-22 09:47 | -32.72109 | 152.41553 | 6627 ft | 264 kts | 120° |
| 2026-04-22 09:47 | -32.73375 | 152.43079 | 6457 ft | 254 kts | 156° |
| 2026-04-22 09:48 | -32.75011 | 152.42848 | 6826 ft | 275 kts | 221° |
| 2026-04-22 09:48 | -32.76220 | 152.41109 | 6906 ft | 274 kts | 237° |
| 2026-04-22 09:48 | -32.77129 | 152.39132 | 7368 ft | 278 kts | 249° |
| 2026-04-22 09:48 | -32.77487 | 152.36886 | 7928 ft | 292 kts | 270° |
| 2026-04-22 09:49 | -32.77022 | 152.34543 | 7504 ft | 289 kts | 283° |
| 2026-04-22 09:49 | -32.76485 | 152.32247 | 7550 ft | 288 kts | 284° |
| 2026-04-22 09:49 | -32.75912 | 152.29971 | 7706 ft | 288 kts | 280° |
| 2026-04-22 09:49 | -32.75534 | 152.27636 | 7886 ft | 288 kts | 277° |
| 2026-04-22 09:50 | -32.75313 | 152.25271 | 8073 ft | 290 kts | 273° |
| 2026-04-22 09:50 | -32.75089 | 152.22897 | 8328 ft | 291 kts | 274° |
| 2026-04-22 09:50 | -32.74891 | 152.20509 | 8612 ft | 289 kts | 272° |
| 2026-04-22 09:50 | -32.74719 | 152.18132 | 8829 ft | 297 kts | 272° |
| 2026-04-22 09:51 | -32.74576 | 152.15717 | 8380 ft | 284 kts | 269° |
| 2026-04-22 09:51 | -32.74359 | 152.13438 | 7923 ft | 270 kts | 269° |
| 2026-04-22 09:51 | -32.74255 | 152.11246 | 7326 ft | 266 kts | 269° |
| 2026-04-22 09:51 | -32.74180 | 152.09047 | 6557 ft | 267 kts | 270° |
| 2026-04-22 09:52 | -32.74138 | 152.06825 | 5952 ft | 273 kts | 269° |
| 2026-04-22 09:52 | -32.74014 | 152.04653 | 5536 ft | 263 kts | 271° |
| 2026-04-22 09:52 | -32.73853 | 152.02371 | 5297 ft | 287 kts | 272° |
| 2026-04-22 09:52 | -32.73667 | 151.99941 | 5240 ft | 301 kts | 272° |
| 2026-04-22 09:53 | -32.73494 | 151.97440 | 5335 ft | 307 kts | 271° |
| 2026-04-22 09:53 | -32.73327 | 151.94923 | 5450 ft | 313 kts | 272° |
| 2026-04-22 09:53 | -32.73109 | 151.92288 | 5584 ft | 319 kts | 277° |
| 2026-04-22 09:53 | -32.72670 | 151.89673 | 4679 ft | 325 kts | 278° |
| 2026-04-22 09:54 | -32.72370 | 151.87145 | 4007 ft | 302 kts | 270° |
| 2026-04-22 09:54 | -32.72504 | 151.84750 | 3667 ft | 273 kts | 255° |
| 2026-04-22 09:54 | -32.73025 | 151.82695 | 3344 ft | 250 kts | 244° |
| 2026-04-22 09:54 | -32.73659 | 151.80829 | 2787 ft | 237 kts | 243° |
| 2026-04-22 09:55 | -32.74457 | 151.79212 | 2237 ft | 216 kts | 223° |
| 2026-04-22 09:55 | -32.75704 | 151.78777 | 1539 ft | 211 kts | 162° |
| 2026-04-22 09:55 | -32.77178 | 151.80301 | 959 ft | 367 kts | 130° |
| 2026-04-22 09:55 | -32.78910 | 151.82780 | 670 ft | 363 kts | 130° |
| 2026-04-22 09:56 | -32.80492 | 151.84727 | 894 ft | 300 kts | 159° |
| 2026-04-22 09:56 | -32.81693 | 151.83917 | 1100 ft | 198 kts | 271° |
| 2026-04-22 09:56 | -32.81004 | 151.82639 | 1036 ft | 200 kts | 305° |
| 2026-04-22 09:56 | -32.80134 | 151.81303 | 1289 ft | 211 kts | 305° |
| 2026-04-22 09:57 | -32.79153 | 151.79798 | 1376 ft | 252 kts | 305° |
| 2026-04-22 09:57 | -32.78009 | 151.78526 | 1347 ft | 181 kts | 359° |
| 2026-04-22 09:57 | -32.77322 | 151.79412 | 978 ft | 205 kts | 88° |
| 2026-04-22 09:57 | -32.77890 | 151.81171 | 592 ft | 249 kts | 133° |
| 2026-04-22 09:58 | -32.78921 | 151.82549 | 102 ft | 193 kts | 128° |
| 2026-04-22 09:58 | -32.79591 | 151.83481 | 27 ft | 89 kts | 130° |
| 2026-04-22 09:58 | -32.79877 | 151.83885 | 32 ft | 33 kts | 132° |
| 2026-04-22 09:58 | -32.80024 | 151.84091 | 31 ft | 35 kts | 129° |
| 2026-04-22 09:59 | -32.80173 | 151.84303 | 28 ft | 33 kts | 131° |
| 2026-04-22 09:59 | -32.80259 | 151.84420 | 28 ft | 15 kts | 111° |
| 2026-04-22 09:59 | -32.80221 | 151.84532 | 28 ft | 18 kts | 46° |
| 2026-04-22 09:59 | -32.80111 | 151.84499 | 28 ft | 22 kts | 310° |
| 2026-04-22 10:00 | -32.80004 | 151.84340 | 31 ft | 26 kts | 314° |
| 2026-04-22 10:00 | -32.79871 | 151.84159 | 32 ft | 31 kts | 310° |
| 2026-04-22 10:00 | -32.79717 | 151.83953 | 31 ft | 37 kts | 308° |
| 2026-04-22 10:00 | -32.79583 | 151.83761 | 29 ft | 9 kts | 315° |
| 2026-04-22 10:01 | -32.79545 | 151.83706 | 28 ft | 19 kts | 309° |
| 2026-04-22 10:01 | -32.79446 | 151.83563 | 28 ft | 36 kts | 308° |
| 2026-04-22 10:01 | -32.79325 | 151.83500 | 29 ft | 16 kts | 37° |
| 2026-04-22 10:01 | -32.79240 | 151.83583 | 31 ft | 21 kts | 41° |
| 2026-04-22 10:02 | -32.79139 | 151.83684 | 31 ft | 14 kts | 40° |
| 2026-04-22 10:02 | -32.79075 | 151.83731 | 31 ft | 8 kts | 345° |
| 2026-04-22 10:02 | -32.79060 | 151.83721 | 31 ft | 1 kts | 323° |
| 2026-04-22 10:02 | -32.79039 | 151.83706 | 31 ft | 12 kts | 338° |
| 2026-04-22 10:03 | -32.78960 | 151.83748 | 31 ft | 12 kts | 35° |
| 2026-04-22 10:03 | -32.78911 | 151.83815 | 31 ft | 5 kts | 56° |
| 2026-04-22 10:03 | -32.78902 | 151.83847 | 31 ft | 3 kts | 108° |
| 2026-04-22 10:03 | -32.78904 | 151.83870 | 31 ft | 3 kts | 75° |
| 2026-04-22 10:04 | -32.78892 | 151.83893 | 31 ft | 0 kts | 54° |